Latest Weather Observations for Edinburgh

IDS60901

Issued at 3:35 pm CST Thursday 24 April 2014 (issued every 10 minutes, with the page automatically refreshed every 10 minutes)

About weather observations | Map of Adelaide area stations | Latest observations for Adelaide area | Other Formats
Station Details ID: 023083 Name: EDINBURGH RAAF Lat: -34.71 Lon: 138.62 Height: 16.54 m
Data from the previous 72 hours. | See also: Recent months at Edinburgh
Date/Time
CST
Tmp

°C
App
Tmp
°C
Dew
Point
°C
Rel
Hum
%
Delta-T

°C
Wind Press
QNH
hPa
Press
MSL
hPa
Rain
since
9 am
mm
Dir
 
Spd
km/h
Gust
km/h
Spd
kts
Gust
kts
24/03:30pm 21.1 16.2 8.4 44 6.6 SW 24 32 13 17 1017.2 - 0.0
24/03:00pm 21.1 15.9 8.7 45 6.5 SW 26 33 14 18 1017.2 1017.1 0.0
24/02:30pm 20.8 15.7 9.1 47 6.2 SW 26 33 14 18 1017.1 - 0.0
24/02:00pm 21.4 17.2 9.6 47 6.3 SW 22 32 12 17 1017.1 - 0.0
24/01:30pm 20.8 17.8 9.4 48 6.1 S 15 20 8 11 1017.4 - 0.0
24/01:00pm 20.8 17.1 9.4 48 6.1 SSW 19 28 10 15 1017.5 - 0.0
24/12:30pm 20.1 16.5 9.7 51 5.6 SSW 19 22 10 12 1017.9 - 0.0
24/12:00pm 20.3 18.9 11.0 55 5.1 SSE 9 17 5 9 1018.3 1018.2 0.0
24/11:30am 19.6 17.4 10.9 57 4.7 SE 13 19 7 10 1018.5 - 0.0
24/11:00am 18.8 18.0 11.6 63 4.0 SSE 7 15 4 8 1018.5 - 0.0
24/10:30am 19.0 18.3 12.0 64 3.9 E 7 13 4 7 1018.4 - 0.0
24/10:00am 19.3 18.4 12.6 65 3.8 ESE 9 15 5 8 1018.5 - 0.0
24/09:30am 18.1 17.0 12.1 68 3.3 E 9 11 5 6 1018.6 - 0.0
24/09:00am 17.1 16.4 12.0 72 2.8 ENE 7 9 4 5 1018.6 1018.5 0.0
24/08:30am 15.4 14.0 12.3 82 1.7 NE 11 15 6 8 1018.5 - 0.0
24/08:00am 14.0 12.9 12.0 88 1.1 ENE 9 13 5 7 1018.0 - 0.0
24/07:30am 13.5 11.4 11.0 85 1.3 NNE 13 15 7 8 1017.4 - 0.0
24/07:00am 13.1 10.8 10.5 84 1.4 NNE 13 17 7 9 1017.1 - 0.0
24/06:30am 13.0 10.6 10.0 82 1.5 NNE 13 15 7 8 1016.7 - 0.0
24/06:00am 12.8 10.3 9.6 81 1.6 NNE 13 17 7 9 1016.5 1016.4 0.0
24/05:30am 12.4 9.7 9.1 80 1.7 NE 13 15 7 8 1016.2 - 0.0
24/05:00am 12.1 9.8 8.9 81 1.6 NNE 11 13 6 7 1016.0 - 0.0
24/04:30am 11.9 9.5 8.7 81 1.6 NE 11 13 6 7 1015.8 - 0.0
24/04:00am 12.0 9.6 8.7 80 1.6 ENE 11 13 6 7 1015.6 - 0.0
24/03:30am 12.0 10.0 8.8 81 1.6 NE 9 11 5 6 1015.5 - 0.0
24/03:00am 12.3 10.3 8.8 79 1.7 NE 9 13 5 7 1015.5 1015.4 0.0
24/02:30am 12.2 10.5 8.3 77 1.9 E 7 9 4 5 1015.6 - 0.0
24/02:00am 11.8 9.8 7.3 74 2.2 NNE 7 9 4 5 1015.8 - 0.0
24/01:30am 12.0 10.0 7.3 73 2.3 N 7 11 4 6 1015.8 - 0.0
24/01:00am 11.5 9.3 6.4 71 2.4 NE 7 9 4 5 1015.9 - 0.0
24/12:30am 11.2 8.6 6.1 71 2.4 NNE 9 11 5 6 1015.8 - 0.0
24/12:00am 11.3 8.7 6.2 71 2.4 NE 9 11 5 6 1015.8 1015.7 0.0
 
Date/Time
CST
Tmp

°C
App
Tmp
°C
Dew
Point
°C
Rel
Hum
%
Delta-T

°C
Wind Press
QNH
hPa
Press
MSL
hPa
Rain
since
9 am
mm
Dir
 
Spd
km/h
Gust
km/h
Spd
kts
Gust
kts
23/11:30pm 11.0 8.0 6.0 71 2.3 NE 11 13 6 7 1016.0 - 0.0
23/11:00pm 10.8 8.2 6.0 72 2.2 NE 9 11 5 6 1016.0 - 0.0
23/10:30pm 10.8 7.8 6.2 73 2.1 NNE 11 13 6 7 1016.0 - 0.0
23/10:00pm 11.4 8.8 6.3 71 2.4 NE 9 11 5 6 1015.7 - 0.0
23/09:30pm 12.0 9.4 6.3 68 2.7 NE 9 11 5 6 1015.7 - 0.0
23/09:00pm 12.9 10.8 6.7 66 3.0 NE 7 9 4 5 1015.6 1015.5 0.0
23/08:30pm 12.7 10.6 6.7 67 2.9 NE 7 7 4 4 1015.4 - 0.0
23/08:00pm 13.8 11.8 6.9 63 3.3 ENE 7 9 4 5 1015.5 - 0.0
23/07:30pm 14.0 12.0 7.3 64 3.3 ENE 7 9 4 5 1015.5 - 0.0
23/07:00pm 15.2 13.4 7.2 59 3.9 NE 6 7 3 4 1015.5 - 0.0
23/06:30pm 14.9 12.9 7.0 59 3.9 N 7 9 4 5 1015.2 - 0.0
23/06:00pm 16.7 14.8 6.8 52 4.9 NNW 6 7 3 4 1015.0 1014.9 0.0
23/05:30pm 18.6 16.8 7.1 47 5.8 WNW 6 7 3 4 1014.8 - 0.0
23/05:00pm 19.5 17.3 6.3 42 6.6 WSW 7 11 4 6 1014.8 - 0.0
23/04:30pm 19.2 16.8 5.3 40 6.8 WSW 7 9 4 5 1014.6 - 0.0
23/04:00pm 20.4 17.6 5.2 37 7.5 WSW 9 15 5 8 1014.6 - 0.0
23/03:30pm 20.1 17.0 3.8 34 7.8 WSW 9 15 5 8 1014.8 - 0.0
23/03:00pm 20.0 16.2 3.7 34 7.7 WSW 13 19 7 10 1014.8 1014.7 0.0
23/02:30pm 20.0 16.8 4.9 37 7.4 WSW 11 17 6 9 1015.0 - 0.0
23/02:00pm 19.8 16.6 3.1 33 7.8 WSW 9 15 5 8 1015.2 - 0.0
23/01:30pm 19.5 16.5 4.0 36 7.4 SW 9 15 5 8 1015.6 - 0.0
23/01:00pm 19.0 15.3 4.7 39 6.9 W 13 19 7 10 1016.2 - 0.0
23/12:30pm 18.7 15.3 5.9 43 6.3 SW 13 19 7 10 1016.7 - 0.0
23/12:00pm 18.5 15.3 5.0 41 6.5 SW 11 17 6 9 1017.1 1017.0 0.0
23/11:30am 19.0 16.7 4.7 39 6.9 NW 6 11 3 6 1017.5 - 0.0
23/11:00am 18.4 16.1 4.9 41 6.5 W 6 11 3 6 1017.9 - 0.0
23/10:30am 17.9 15.5 5.2 43 6.1 ENE 7 11 4 6 1018.3 - 0.0
23/10:00am 16.5 14.6 7.7 56 4.4 E 7 11 4 6 1018.6 - 0.0
23/09:30am 15.4 13.9 8.4 63 3.5 NE 6 9 3 5 1018.8 - 0.0
23/09:00am 13.2 11.7 8.3 72 2.4 ENE 6 7 3 4 1018.9 1018.8 0.0
23/08:30am 11.7 10.5 8.0 78 1.8 N 4 6 2 3 1018.7 - 0.0
23/08:00am 10.2 7.9 7.6 84 1.2 NNE 9 11 5 6 1018.3 - 0.0
23/07:30am 8.8 6.3 6.6 86 1.0 NE 9 11 5 6 1018.1 - 0.0
23/07:00am 6.6 5.4 4.6 87 0.9 CALM 0 4 0 2 1018.1 - 0.0
23/06:30am 7.2 4.5 5.5 89 0.8 NE 9 11 5 6 1017.6 - 0.0
23/06:00am 7.1 4.4 5.4 89 0.8 NE 9 11 5 6 1017.7 1017.6 0.0
23/05:30am 7.0 4.2 5.3 89 0.8 NNE 9 11 5 6 1017.7 - 0.0
23/05:00am 7.3 3.8 5.6 89 0.8 NNE 13 15 7 8 1017.8 - 0.0
23/04:30am 7.5 5.1 5.3 86 1.0 NE 7 9 4 5 1017.9 - 0.0
23/04:00am 8.7 5.8 6.7 87 0.9 NE 11 13 6 7 1017.8 - 0.0
23/03:30am 8.2 5.2 5.8 85 1.1 NE 11 13 6 7 1017.7 - 0.0
23/03:00am 8.4 5.4 6.0 85 1.1 NE 11 11 6 6 1017.9 1017.8 0.0
23/02:30am 8.2 5.1 5.5 83 1.2 NNE 11 13 6 7 1018.1 - 0.0
23/02:00am 8.9 6.6 5.6 80 1.5 NE 7 9 4 5 1018.2 - 0.0
23/01:30am 9.3 7.1 6.0 80 1.5 ENE 7 7 4 4 1018.3 - 0.0
23/01:00am 9.4 7.3 5.6 77 1.7 ENE 6 7 3 4 1018.5 - 0.0
23/12:30am 9.6 8.4 4.6 71 2.2 CALM 0 6 0 3 1018.8 - 0.0
23/12:00am 10.5 9.7 6.5 76 1.9 CALM 0 0 0 0 1018.9 1018.8 0.0
 
Date/Time
CST
Tmp

°C
App
Tmp
°C
Dew
Point
°C
Rel
Hum
%
Delta-T

°C
Wind Press
QNH
hPa
Press
MSL
hPa
Rain
since
9 am
mm
Dir
 
Spd
km/h
Gust
km/h
Spd
kts
Gust
kts
22/11:30pm 11.1 10.3 6.3 72 2.3 CALM 0 0 0 0 1019.0 - 0.0
22/11:00pm 11.8 10.9 5.9 67 2.8 CALM 0 0 0 0 1019.1 - 0.0
22/10:30pm 12.5 10.9 6.3 66 2.9 SSW 4 6 2 3 1019.0 - 0.0
22/10:00pm 12.8 11.9 5.9 63 3.2 CALM 0 0 0 0 1019.0 - 0.0
22/09:30pm 14.7 13.1 6.3 57 4.0 SE 4 6 2 3 1019.0 - 0.0
22/09:00pm 15.3 14.4 6.1 54 4.4 CALM 0 0 0 0 1019.2 1019.1 0.0
22/08:30pm 15.6 13.6 6.9 56 4.3 SE 7 11 4 6 1018.9 - 0.0
22/08:00pm 15.9 13.7 7.7 58 4.1 SE 9 15 5 8 1018.9 - 0.0
22/07:30pm 16.4 13.8 7.9 57 4.3 ESE 11 15 6 8 1018.8 - 0.0
22/07:00pm 16.9 14.2 7.3 53 4.8 SSE 11 17 6 9 1018.5 - 0.0
22/06:30pm 16.9 12.5 7.3 53 4.8 SSW 20 26 11 14 1018.1 - 0.0
22/06:00pm 17.0 12.6 8.9 59 4.2 SSW 22 28 12 15 1017.7 1017.6 0.0
22/05:30pm 17.3 12.5 9.0 58 4.3 SSW 24 30 13 16 1017.6 - 0.0
22/05:00pm 17.7 12.2 9.1 57 4.5 SW 28 33 15 18 1017.3 - 0.0
22/04:30pm 18.1 13.3 8.9 55 4.8 SSW 24 32 13 17 1017.1 - 0.0
22/04:00pm 18.4 12.9 9.2 55 4.8 SW 28 35 15 19 1016.9 - 0.0
22/03:30pm 19.8 14.5 9.7 52 5.4 SW 28 35 15 19 1016.9 - 0.0
22/03:00pm 20.0 14.7 9.9 52 5.4 SW 28 37 15 20 1016.7 1016.6 0.0
22/02:30pm 20.1 15.1 9.4 50 5.7 SW 26 33 14 18 1016.6 - 0.0
22/02:00pm 20.8 15.6 10.3 51 5.7 SW 28 35 15 19 1016.5 - 0.0
22/01:30pm 21.0 16.2 10.2 50 5.9 SW 26 37 14 20 1016.5 - 0.0
22/01:00pm 20.4 15.6 10.2 52 5.5 SW 26 37 14 20 1016.6 - 0.0
22/12:30pm 20.1 15.6 9.9 52 5.5 WSW 24 33 13 18 1016.8 - 0.0
22/12:00pm 20.6 16.4 9.8 50 5.8 WSW 22 28 12 15 1017.1 1017.0 0.0
22/11:30am 20.2 16.1 10.0 52 5.5 SW 22 33 12 18 1017.2 - 0.0
22/11:00am 20.1 16.2 10.8 55 5.1 SSW 22 30 12 16 1017.3 - 0.0
22/10:30am 19.8 16.3 11.0 57 4.8 SW 20 30 11 16 1017.3 - 0.0
22/10:00am 19.5 16.5 11.8 61 4.3 SSW 19 24 10 13 1017.2 - 0.0
22/09:30am 18.8 15.7 12.1 65 3.7 SSW 20 24 11 13 1017.0 - 0.0
22/09:00am 18.8 15.4 12.5 67 3.5 SSW 22 28 12 15 1016.9 1016.8 0.0
22/08:30am 18.0 14.7 12.7 71 3.0 SSW 22 28 12 15 1016.6 - 0.0
22/08:00am 17.7 15.6 13.6 77 2.3 SSW 17 20 9 11 1016.2 - 0.0
22/07:30am 17.1 14.8 13.0 77 2.3 SSW 17 20 9 11 1016.0 - 0.0
22/07:00am 17.1 14.6 13.6 80 2.0 SSW 19 24 10 13 1015.5 - 0.0
22/06:30am 16.9 15.8 14.2 84 1.5 SSW 13 17 7 9 1014.8 - 0.0
22/06:00am 16.7 14.2 14.0 84 1.5 SW 20 26 11 14 1014.1 1014.0 0.0
22/05:30am 17.0 15.1 14.1 83 1.7 SSW 17 20 9 11 1013.9 - 0.0
22/05:00am 17.2 15.1 14.7 85 1.4 SSW 19 22 10 12 1013.5 - 0.0
22/04:30am 15.6 13.8 13.3 86 1.3 WSW 15 17 8 9 1013.1 - 0.0
22/04:00am 17.6 17.8 14.1 80 2.0 S 6 9 3 5 1012.5 - 0.0
22/03:30am 17.8 16.8 12.3 70 3.0 S 9 13 5 7 1012.5 - 0.0
22/03:00am 17.1 15.3 9.5 61 4.0 WSW 9 15 5 8 1012.2 1012.1 0.0
22/02:30am 18.0 15.0 9.1 56 4.6 NNE 15 19 8 10 1011.8 - 0.0
22/02:00am 17.4 15.1 9.1 58 4.3 NNE 11 17 6 9 1012.1 - 0.0
22/01:30am 17.8 14.2 8.4 54 4.8 NE 17 20 9 11 1011.9 - 0.0
22/01:00am 18.0 15.3 8.8 55 4.8 ENE 13 15 7 8 1011.8 - 0.0
22/12:30am 17.2 17.1 10.8 66 3.4 ENE 2 9 1 5 1011.9 - 0.0
22/12:00am 18.3 18.4 11.6 65 3.7 SE 2 7 1 4 1012.2 1012.1 0.0
 
Date/Time
CST
Tmp

°C
App
Tmp
°C
Dew
Point
°C
Rel
Hum
%
Delta-T

°C
Wind Press
QNH
hPa
Press
MSL
hPa
Rain
since
9 am
mm
Dir
 
Spd
km/h
Gust
km/h
Spd
kts
Gust
kts
21/11:30pm 20.0 20.6 12.0 60 4.5 CALM 0 7 0 4 1012.2 - 0.0
21/11:00pm 21.5 18.0 10.9 51 5.8 W 20 24 11 13 1012.5 - 0.0
21/10:30pm 19.7 17.4 9.0 50 5.6 SW 11 17 6 9 1012.3 - 0.0
21/10:00pm 20.1 18.0 8.4 47 6.1 W 9 11 5 6 1012.0 - 0.0
21/09:30pm 21.3 19.4 9.2 46 6.4 SSW 9 11 5 6 1011.7 - 0.0
21/09:00pm 21.4 18.3 5.7 36 7.8 WNW 11 17 6 9 1011.9 1011.8 0.0
21/08:30pm 23.7 19.2 6.0 32 9.0 N 19 24 10 13 1011.1 - 0.0
21/08:00pm 24.2 18.7 6.0 31 9.3 N 24 33 13 18 1011.0 - 0.0
21/07:30pm 22.6 18.7 7.2 37 8.0 NNE 17 22 9 12 1011.0 - 0.0
21/07:00pm 24.2 19.7 6.9 33 9.0 N 20 26 11 14 1011.0 - 0.0
21/06:30pm 24.9 20.5 6.6 31 9.5 N 19 26 10 14 1010.9 - 0.0
21/06:00pm 25.8 20.8 6.4 29 10.1 N 22 28 12 15 1010.8 1010.8 0.0
21/05:30pm 26.4 21.0 6.4 28 10.4 N 24 33 13 18 1010.6 - 0.0
21/05:00pm 27.4 20.8 6.2 26 11.1 NNW 30 43 16 23 1010.6 - 0.0
21/04:30pm 28.3 20.8 6.4 25 11.6 NNW 35 50 19 27 1010.6 - 0.0
21/04:00pm 29.2 21.8 6.6 24 12.0 NNW 35 43 19 23 1010.6 - 0.0

Latest Capital City Observations: Canberra | Sydney | Melbourne | Brisbane | Adelaide | Perth | Hobart | Darwin

Other Formats:

Comma delimited format used in spreadsheet applications
http://www.bom.gov.au/fwo/IDS60901/IDS60901.95676.axf

JavaScript Object Notation format (JSON) in row-major order
http://www.bom.gov.au/fwo/IDS60901/IDS60901.95676.json